sensor_id;sensor_type;location;lat;lon;timestamp;temperature;humidity
31735;DHT22;18313;48.518;9.124;2023-02-28T00:01:14;-1.50;99.90
31735;DHT22;18313;48.518;9.124;2023-02-28T00:03:41;-1.50;99.90
31735;DHT22;18313;48.518;9.124;2023-02-28T00:06:09;-1.50;99.90
31735;DHT22;18313;48.518;9.124;2023-02-28T00:08:37;-1.50;99.90
31735;DHT22;18313;48.518;9.124;2023-02-28T00:11:07;-1.60;99.90
31735;DHT22;18313;48.518;9.124;2023-02-28T00:13:35;-1.60;99.90
31735;DHT22;18313;48.518;9.124;2023-02-28T00:16:12;-1.60;99.90
31735;DHT22;18313;48.518;9.124;2023-02-28T00:18:40;-1.60;99.90
31735;DHT22;18313;48.518;9.124;2023-02-28T00:21:07;-1.60;99.90
31735;DHT22;18313;48.518;9.124;2023-02-28T00:23:35;-1.60;99.90
31735;DHT22;18313;48.518;9.124;2023-02-28T00:26:02;-1.60;99.90
31735;DHT22;18313;48.518;9.124;2023-02-28T00:28:29;-1.60;99.90
31735;DHT22;18313;48.518;9.124;2023-02-28T00:30:56;-1.60;99.90
31735;DHT22;18313;48.518;9.124;2023-02-28T00:33:24;-1.60;99.90
31735;DHT22;18313;48.518;9.124;2023-02-28T00:35:51;-1.70;99.90
31735;DHT22;18313;48.518;9.124;2023-02-28T00:38:18;-1.80;99.90
31735;DHT22;18313;48.518;9.124;2023-02-28T00:40:45;-1.80;99.90
31735;DHT22;18313;48.518;9.124;2023-02-28T00:43:12;-1.80;99.90
31735;DHT22;18313;48.518;9.124;2023-02-28T00:45:39;-1.80;99.90
31735;DHT22;18313;48.518;9.124;2023-02-28T00:48:07;-1.80;99.90
31735;DHT22;18313;48.518;9.124;2023-02-28T00:50:33;-1.80;99.90
31735;DHT22;18313;48.518;9.124;2023-02-28T00:53:00;-1.80;99.90
31735;DHT22;18313;48.518;9.124;2023-02-28T00:55:27;-1.80;99.90
31735;DHT22;18313;48.518;9.124;2023-02-28T00:57:54;-1.90;99.90
31735;DHT22;18313;48.518;9.124;2023-02-28T01:00:21;-1.90;99.90
31735;DHT22;18313;48.518;9.124;2023-02-28T01:02:48;-1.80;99.90
31735;DHT22;18313;48.518;9.124;2023-02-28T01:05:15;-1.80;99.90
31735;DHT22;18313;48.518;9.124;2023-02-28T01:07:43;-1.80;99.90
31735;DHT22;18313;48.518;9.124;2023-02-28T01:10:10;-1.90;99.90
31735;DHT22;18313;48.518;9.124;2023-02-28T01:12:37;-1.80;99.90
31735;DHT22;18313;48.518;9.124;2023-02-28T01:15:05;-1.90;99.90
31735;DHT22;18313;48.518;9.124;2023-02-28T01:17:32;-1.90;99.90
31735;DHT22;18313;48.518;9.124;2023-02-28T01:19:59;-1.90;99.90
31735;DHT22;18313;48.518;9.124;2023-02-28T01:22:26;-1.90;99.90
31735;DHT22;18313;48.518;9.124;2023-02-28T01:24:53;-1.90;99.90
31735;DHT22;18313;48.518;9.124;2023-02-28T01:27:20;-1.90;99.90
31735;DHT22;18313;48.518;9.124;2023-02-28T01:29:47;-1.90;99.90
31735;DHT22;18313;48.518;9.124;2023-02-28T01:32:14;-2.00;99.90
31735;DHT22;18313;48.518;9.124;2023-02-28T01:34:41;-2.00;99.90
31735;DHT22;18313;48.518;9.124;2023-02-28T01:37:08;-2.00;99.90
31735;DHT22;18313;48.518;9.124;2023-02-28T01:39:35;-2.00;99.90
31735;DHT22;18313;48.518;9.124;2023-02-28T01:42:02;-2.00;99.90
31735;DHT22;18313;48.518;9.124;2023-02-28T01:47:34;-2.00;99.90
31735;DHT22;18313;48.518;9.124;2023-02-28T01:50:06;-2.10;99.90
31735;DHT22;18313;48.518;9.124;2023-02-28T01:52:34;-2.00;99.90
31735;DHT22;18313;48.518;9.124;2023-02-28T02:03:09;-2.10;99.90
31735;DHT22;18313;48.518;9.124;2023-02-28T02:05:38;-2.10;99.90
31735;DHT22;18313;48.518;9.124;2023-02-28T02:08:15;-2.10;99.90
31735;DHT22;18313;48.518;9.124;2023-02-28T02:10:49;-2.10;99.90
31735;DHT22;18313;48.518;9.124;2023-02-28T02:13:34;-2.10;99.90
31735;DHT22;18313;48.518;9.124;2023-02-28T02:19:46;-2.10;99.90
31735;DHT22;18313;48.518;9.124;2023-02-28T02:37:27;-2.20;99.90
31735;DHT22;18313;48.518;9.124;2023-02-28T02:39:53;-2.30;99.90
31735;DHT22;18313;48.518;9.124;2023-02-28T02:42:38;-2.20;99.90
31735;DHT22;18313;48.518;9.124;2023-02-28T02:45:11;-2.20;99.90
31735;DHT22;18313;48.518;9.124;2023-02-28T02:47:39;-2.20;99.90
31735;DHT22;18313;48.518;9.124;2023-02-28T02:50:12;-2.20;99.90
31735;DHT22;18313;48.518;9.124;2023-02-28T02:52:45;-2.20;99.90
31735;DHT22;18313;48.518;9.124;2023-02-28T02:55:15;-2.20;99.90
31735;DHT22;18313;48.518;9.124;2023-02-28T02:57:46;-2.20;99.90
31735;DHT22;18313;48.518;9.124;2023-02-28T03:00:16;-2.20;99.90
31735;DHT22;18313;48.518;9.124;2023-02-28T03:02:45;-2.20;99.90
31735;DHT22;18313;48.518;9.124;2023-02-28T03:05:23;-2.20;99.90
31735;DHT22;18313;48.518;9.124;2023-02-28T03:07:50;-2.10;99.90
31735;DHT22;18313;48.518;9.124;2023-02-28T03:10:35;-2.10;99.90
31735;DHT22;18313;48.518;9.124;2023-02-28T03:15:57;-2.00;99.90
31735;DHT22;18313;48.518;9.124;2023-02-28T03:24:18;-2.00;99.90
31735;DHT22;18313;48.518;9.124;2023-02-28T03:26:53;-2.00;99.90
31735;DHT22;18313;48.518;9.124;2023-02-28T03:29:37;-2.10;99.90
31735;DHT22;18313;48.518;9.124;2023-02-28T03:32:18;-2.00;99.90
31735;DHT22;18313;48.518;9.124;2023-02-28T03:34:56;-2.00;99.90
31735;DHT22;18313;48.518;9.124;2023-02-28T03:37:27;-1.90;99.90
31735;DHT22;18313;48.518;9.124;2023-02-28T03:40:00;-2.00;99.90
31735;DHT22;18313;48.518;9.124;2023-02-28T03:42:31;-2.00;99.90
31735;DHT22;18313;48.518;9.124;2023-02-28T03:45:30;-2.00;99.90
31735;DHT22;18313;48.518;9.124;2023-02-28T03:48:02;-1.90;99.90
31735;DHT22;18313;48.518;9.124;2023-02-28T03:50:38;-2.00;99.90
31735;DHT22;18313;48.518;9.124;2023-02-28T03:55:43;-1.90;99.90
31735;DHT22;18313;48.518;9.124;2023-02-28T04:01:23;-1.90;99.90
31735;DHT22;18313;48.518;9.124;2023-02-28T04:03:53;-1.90;99.90
31735;DHT22;18313;48.518;9.124;2023-02-28T04:06:21;-1.90;99.90
31735;DHT22;18313;48.518;9.124;2023-02-28T04:08:48;-1.90;99.90
31735;DHT22;18313;48.518;9.124;2023-02-28T04:11:40;-1.80;99.90
31735;DHT22;18313;48.518;9.124;2023-02-28T04:14:09;-1.90;99.90
31735;DHT22;18313;48.518;9.124;2023-02-28T04:16:39;-1.90;99.90
31735;DHT22;18313;48.518;9.124;2023-02-28T04:19:08;-1.90;99.90
31735;DHT22;18313;48.518;9.124;2023-02-28T04:21:43;-1.90;99.90
31735;DHT22;18313;48.518;9.124;2023-02-28T04:24:13;-2.00;99.90
31735;DHT22;18313;48.518;9.124;2023-02-28T04:26:43;-1.90;99.90
31735;DHT22;18313;48.518;9.124;2023-02-28T04:29:12;-1.90;99.90
31735;DHT22;18313;48.518;9.124;2023-02-28T04:31:40;-1.90;99.90
31735;DHT22;18313;48.518;9.124;2023-02-28T04:34:07;-1.90;99.90
31735;DHT22;18313;48.518;9.124;2023-02-28T04:36:34;-1.90;99.90
31735;DHT22;18313;48.518;9.124;2023-02-28T04:39:01;-1.80;99.90
31735;DHT22;18313;48.518;9.124;2023-02-28T04:41:28;-1.80;99.90
31735;DHT22;18313;48.518;9.124;2023-02-28T04:43:58;-1.70;99.90
31735;DHT22;18313;48.518;9.124;2023-02-28T04:46:25;-1.80;99.90
31735;DHT22;18313;48.518;9.124;2023-02-28T04:48:52;-1.80;99.90
31735;DHT22;18313;48.518;9.124;2023-02-28T04:51:21;-1.80;99.90
31735;DHT22;18313;48.518;9.124;2023-02-28T04:53:49;-1.80;99.90
31735;DHT22;18313;48.518;9.124;2023-02-28T04:56:17;-1.80;99.90
31735;DHT22;18313;48.518;9.124;2023-02-28T04:58:45;-1.80;99.90
31735;DHT22;18313;48.518;9.124;2023-02-28T05:01:27;-1.90;99.90
31735;DHT22;18313;48.518;9.124;2023-02-28T05:03:56;-1.90;99.90
31735;DHT22;18313;48.518;9.124;2023-02-28T05:06:25;-1.90;99.90
31735;DHT22;18313;48.518;9.124;2023-02-28T05:08:52;-1.90;99.90
31735;DHT22;18313;48.518;9.124;2023-02-28T05:11:31;-1.90;99.90
31735;DHT22;18313;48.518;9.124;2023-02-28T05:14:03;-1.80;99.90
31735;DHT22;18313;48.518;9.124;2023-02-28T05:16:31;-1.70;99.90
31735;DHT22;18313;48.518;9.124;2023-02-28T05:18:58;-1.70;99.90
31735;DHT22;18313;48.518;9.124;2023-02-28T05:21:27;-1.70;99.90
31735;DHT22;18313;48.518;9.124;2023-02-28T05:23:59;-1.70;99.90
31735;DHT22;18313;48.518;9.124;2023-02-28T05:26:26;-1.60;99.90
31735;DHT22;18313;48.518;9.124;2023-02-28T05:28:54;-1.60;99.90
31735;DHT22;18313;48.518;9.124;2023-02-28T05:31:22;-1.60;99.90
31735;DHT22;18313;48.518;9.124;2023-02-28T05:33:49;-1.60;99.90
31735;DHT22;18313;48.518;9.124;2023-02-28T05:36:17;-1.60;99.90
31735;DHT22;18313;48.518;9.124;2023-02-28T05:38:46;-1.60;99.90
31735;DHT22;18313;48.518;9.124;2023-02-28T05:41:14;-1.70;99.90
31735;DHT22;18313;48.518;9.124;2023-02-28T05:43:41;-1.70;99.90
31735;DHT22;18313;48.518;9.124;2023-02-28T05:46:11;-1.60;99.90
31735;DHT22;18313;48.518;9.124;2023-02-28T05:48:40;-1.70;99.90
31735;DHT22;18313;48.518;9.124;2023-02-28T05:51:08;-1.70;99.90
31735;DHT22;18313;48.518;9.124;2023-02-28T05:53:35;-1.70;99.90
31735;DHT22;18313;48.518;9.124;2023-02-28T05:56:03;-1.60;99.90
31735;DHT22;18313;48.518;9.124;2023-02-28T05:58:30;-1.60;99.90
31735;DHT22;18313;48.518;9.124;2023-02-28T06:00:58;-1.50;99.90
31735;DHT22;18313;48.518;9.124;2023-02-28T06:03:26;-1.50;99.90
31735;DHT22;18313;48.518;9.124;2023-02-28T06:05:53;-1.60;99.90
31735;DHT22;18313;48.518;9.124;2023-02-28T06:08:21;-1.50;99.90
31735;DHT22;18313;48.518;9.124;2023-02-28T06:10:48;-1.50;99.90
31735;DHT22;18313;48.518;9.124;2023-02-28T06:13:15;-1.50;99.90
31735;DHT22;18313;48.518;9.124;2023-02-28T06:15:42;-1.60;99.90
31735;DHT22;18313;48.518;9.124;2023-02-28T06:18:09;-1.60;99.90
31735;DHT22;18313;48.518;9.124;2023-02-28T06:20:36;-1.60;99.90
31735;DHT22;18313;48.518;9.124;2023-02-28T06:23:03;-1.50;99.90
31735;DHT22;18313;48.518;9.124;2023-02-28T06:25:30;-1.50;99.90
31735;DHT22;18313;48.518;9.124;2023-02-28T06:27:57;-1.50;99.90
31735;DHT22;18313;48.518;9.124;2023-02-28T06:30:25;-1.50;99.90
31735;DHT22;18313;48.518;9.124;2023-02-28T06:32:54;-1.50;99.90
31735;DHT22;18313;48.518;9.124;2023-02-28T06:35:21;-1.40;99.90
31735;DHT22;18313;48.518;9.124;2023-02-28T06:37:49;-1.40;99.90
31735;DHT22;18313;48.518;9.124;2023-02-28T06:40:16;-1.40;99.90
31735;DHT22;18313;48.518;9.124;2023-02-28T06:42:43;-1.40;99.90
31735;DHT22;18313;48.518;9.124;2023-02-28T06:45:11;-1.30;99.90
31735;DHT22;18313;48.518;9.124;2023-02-28T06:47:40;-1.30;99.90
31735;DHT22;18313;48.518;9.124;2023-02-28T06:50:10;-1.30;99.90
31735;DHT22;18313;48.518;9.124;2023-02-28T06:52:38;-1.20;99.90
31735;DHT22;18313;48.518;9.124;2023-02-28T06:55:06;-1.20;99.90
31735;DHT22;18313;48.518;9.124;2023-02-28T06:57:35;-1.20;99.90
31735;DHT22;18313;48.518;9.124;2023-02-28T07:00:06;-1.20;99.90
31735;DHT22;18313;48.518;9.124;2023-02-28T07:02:35;-1.10;99.90
31735;DHT22;18313;48.518;9.124;2023-02-28T07:05:04;-1.20;99.90
31735;DHT22;18313;48.518;9.124;2023-02-28T07:07:31;-1.10;99.90
31735;DHT22;18313;48.518;9.124;2023-02-28T07:09:59;-1.10;99.90
31735;DHT22;18313;48.518;9.124;2023-02-28T07:12:26;-1.10;99.90
31735;DHT22;18313;48.518;9.124;2023-02-28T07:14:53;-1.10;99.90
31735;DHT22;18313;48.518;9.124;2023-02-28T07:17:21;-1.00;99.90
31735;DHT22;18313;48.518;9.124;2023-02-28T07:19:47;-1.10;99.90
31735;DHT22;18313;48.518;9.124;2023-02-28T07:22:14;-1.10;99.90
31735;DHT22;18313;48.518;9.124;2023-02-28T07:24:41;-1.10;99.90
31735;DHT22;18313;48.518;9.124;2023-02-28T07:27:08;-1.20;99.90
31735;DHT22;18313;48.518;9.124;2023-02-28T07:29:35;-1.20;99.90
31735;DHT22;18313;48.518;9.124;2023-02-28T07:32:02;-1.10;99.90
31735;DHT22;18313;48.518;9.124;2023-02-28T07:34:30;-1.00;99.90
31735;DHT22;18313;48.518;9.124;2023-02-28T07:36:57;-1.00;99.90
31735;DHT22;18313;48.518;9.124;2023-02-28T07:39:24;-0.90;99.90
31735;DHT22;18313;48.518;9.124;2023-02-28T07:41:50;-0.90;99.90
31735;DHT22;18313;48.518;9.124;2023-02-28T07:44:18;-0.90;99.90
31735;DHT22;18313;48.518;9.124;2023-02-28T07:46:45;-0.80;99.90
31735;DHT22;18313;48.518;9.124;2023-02-28T07:49:12;-0.80;99.90
31735;DHT22;18313;48.518;9.124;2023-02-28T07:51:39;-0.80;99.90
31735;DHT22;18313;48.518;9.124;2023-02-28T07:54:05;-0.80;99.90
31735;DHT22;18313;48.518;9.124;2023-02-28T07:56:32;-0.80;99.90
31735;DHT22;18313;48.518;9.124;2023-02-28T07:58:59;-0.80;99.90
31735;DHT22;18313;48.518;9.124;2023-02-28T08:01:28;-0.80;99.90
31735;DHT22;18313;48.518;9.124;2023-02-28T08:03:55;-0.70;99.90
31735;DHT22;18313;48.518;9.124;2023-02-28T08:06:24;-0.70;99.90
31735;DHT22;18313;48.518;9.124;2023-02-28T08:08:53;-0.60;99.90
31735;DHT22;18313;48.518;9.124;2023-02-28T08:11:20;-0.70;99.90
31735;DHT22;18313;48.518;9.124;2023-02-28T08:13:47;-0.60;99.90
31735;DHT22;18313;48.518;9.124;2023-02-28T08:16:14;-0.60;99.90
31735;DHT22;18313;48.518;9.124;2023-02-28T08:18:45;-0.50;99.90
31735;DHT22;18313;48.518;9.124;2023-02-28T08:21:12;-0.50;99.90
31735;DHT22;18313;48.518;9.124;2023-02-28T08:23:39;-0.50;99.90
31735;DHT22;18313;48.518;9.124;2023-02-28T08:26:06;-0.40;99.90
31735;DHT22;18313;48.518;9.124;2023-02-28T08:28:33;-0.40;99.90
31735;DHT22;18313;48.518;9.124;2023-02-28T08:31:00;-0.40;99.90
31735;DHT22;18313;48.518;9.124;2023-02-28T08:33:28;-0.30;99.90
31735;DHT22;18313;48.518;9.124;2023-02-28T08:35:55;-0.30;99.90
31735;DHT22;18313;48.518;9.124;2023-02-28T08:38:23;-0.30;99.90
31735;DHT22;18313;48.518;9.124;2023-02-28T08:40:56;-0.30;99.90
31735;DHT22;18313;48.518;9.124;2023-02-28T08:43:24;-0.30;99.90
31735;DHT22;18313;48.518;9.124;2023-02-28T08:45:55;-0.20;99.90
31735;DHT22;18313;48.518;9.124;2023-02-28T08:48:27;-0.20;99.90
31735;DHT22;18313;48.518;9.124;2023-02-28T08:51:09;-0.20;99.90
31735;DHT22;18313;48.518;9.124;2023-02-28T08:53:37;-0.30;99.90
31735;DHT22;18313;48.518;9.124;2023-02-28T08:56:08;-0.40;99.90
31735;DHT22;18313;48.518;9.124;2023-02-28T08:58:36;-0.50;99.90
31735;DHT22;18313;48.518;9.124;2023-02-28T09:01:17;-0.40;99.90
31735;DHT22;18313;48.518;9.124;2023-02-28T09:03:46;-0.50;99.90
31735;DHT22;18313;48.518;9.124;2023-02-28T09:06:16;-0.40;99.90
31735;DHT22;18313;48.518;9.124;2023-02-28T09:08:43;-0.30;99.90
31735;DHT22;18313;48.518;9.124;2023-02-28T09:11:10;-0.20;99.90
31735;DHT22;18313;48.518;9.124;2023-02-28T09:13:38;-0.20;99.90
31735;DHT22;18313;48.518;9.124;2023-02-28T09:16:08;-0.10;99.90
31735;DHT22;18313;48.518;9.124;2023-02-28T09:18:36;-0.20;99.90
31735;DHT22;18313;48.518;9.124;2023-02-28T09:21:08;-0.20;99.90
31735;DHT22;18313;48.518;9.124;2023-02-28T09:23:35;-0.30;99.90
31735;DHT22;18313;48.518;9.124;2023-02-28T09:26:05;-0.20;99.90
31735;DHT22;18313;48.518;9.124;2023-02-28T09:28:32;-0.10;99.90
31735;DHT22;18313;48.518;9.124;2023-02-28T09:30:59;-0.10;99.90
31735;DHT22;18313;48.518;9.124;2023-02-28T09:33:26;-0.20;99.90
31735;DHT22;18313;48.518;9.124;2023-02-28T09:35:59;-0.10;99.90
31735;DHT22;18313;48.518;9.124;2023-02-28T09:38:27;-0.10;99.90
31735;DHT22;18313;48.518;9.124;2023-02-28T09:41:11;-0.10;99.90
31735;DHT22;18313;48.518;9.124;2023-02-28T09:43:44;-0.20;99.90
31735;DHT22;18313;48.518;9.124;2023-02-28T09:48:47;-0.20;99.90
31735;DHT22;18313;48.518;9.124;2023-02-28T09:51:33;-0.10;99.90
31735;DHT22;18313;48.518;9.124;2023-02-28T09:54:01;0.10;99.90
31735;DHT22;18313;48.518;9.124;2023-02-28T09:56:33;0.10;99.90
31735;DHT22;18313;48.518;9.124;2023-02-28T10:06:49;0.50;99.90
31735;DHT22;18313;48.518;9.124;2023-02-28T10:09:29;0.40;99.90
31735;DHT22;18313;48.518;9.124;2023-02-28T10:12:03;0.30;99.90
31735;DHT22;18313;48.518;9.124;2023-02-28T10:14:33;0.30;99.90
31735;DHT22;18313;48.518;9.124;2023-02-28T10:17:13;0.40;99.90
31735;DHT22;18313;48.518;9.124;2023-02-28T10:19:51;0.60;99.90
31735;DHT22;18313;48.518;9.124;2023-02-28T10:22:34;0.80;99.90
31735;DHT22;18313;48.518;9.124;2023-02-28T10:25:17;1.00;99.90
31735;DHT22;18313;48.518;9.124;2023-02-28T10:27:44;1.30;99.90
31735;DHT22;18313;48.518;9.124;2023-02-28T10:30:12;1.00;99.90
31735;DHT22;18313;48.518;9.124;2023-02-28T10:32:46;1.20;99.90
31735;DHT22;18313;48.518;9.124;2023-02-28T10:35:24;1.10;99.90
31735;DHT22;18313;48.518;9.124;2023-02-28T10:37:57;1.00;99.90
31735;DHT22;18313;48.518;9.124;2023-02-28T10:40:35;1.00;99.90
31735;DHT22;18313;48.518;9.124;2023-02-28T10:43:04;1.10;99.90
31735;DHT22;18313;48.518;9.124;2023-02-28T10:45:33;1.10;99.90
31735;DHT22;18313;48.518;9.124;2023-02-28T10:48:36;1.30;99.90
31735;DHT22;18313;48.518;9.124;2023-02-28T10:51:05;1.20;99.90
31735;DHT22;18313;48.518;9.124;2023-02-28T10:53:45;0.90;99.90
31735;DHT22;18313;48.518;9.124;2023-02-28T10:56:26;1.10;99.90
31735;DHT22;18313;48.518;9.124;2023-02-28T10:59:01;1.40;99.90
31735;DHT22;18313;48.518;9.124;2023-02-28T11:01:40;1.50;99.90
31735;DHT22;18313;48.518;9.124;2023-02-28T11:07:00;1.50;99.90
31735;DHT22;18313;48.518;9.124;2023-02-28T11:09:37;1.50;99.90
31735;DHT22;18313;48.518;9.124;2023-02-28T11:12:07;1.60;99.90
31735;DHT22;18313;48.518;9.124;2023-02-28T11:14:54;1.70;99.90
31735;DHT22;18313;48.518;9.124;2023-02-28T11:17:28;1.80;99.90
31735;DHT22;18313;48.518;9.124;2023-02-28T11:20:04;1.70;99.90
31735;DHT22;18313;48.518;9.124;2023-02-28T11:22:37;1.40;99.90
31735;DHT22;18313;48.518;9.124;2023-02-28T11:27:51;1.80;99.90
31735;DHT22;18313;48.518;9.124;2023-02-28T11:30:37;1.90;99.90
31735;DHT22;18313;48.518;9.124;2023-02-28T11:33:40;1.80;99.90
31735;DHT22;18313;48.518;9.124;2023-02-28T11:36:14;1.70;99.90
31735;DHT22;18313;48.518;9.124;2023-02-28T11:38:44;1.90;99.90
31735;DHT22;18313;48.518;9.124;2023-02-28T11:41:53;1.90;99.90
31735;DHT22;18313;48.518;9.124;2023-02-28T11:47:37;2.30;99.90
31735;DHT22;18313;48.518;9.124;2023-02-28T11:53:20;2.80;99.90
31735;DHT22;18313;48.518;9.124;2023-02-28T11:56:10;3.20;99.90
31735;DHT22;18313;48.518;9.124;2023-02-28T11:59:14;3.40;99.90
31735;DHT22;18313;48.518;9.124;2023-02-28T12:02:20;3.80;99.90
31735;DHT22;18313;48.518;9.124;2023-02-28T12:05:16;3.40;99.30
31735;DHT22;18313;48.518;9.124;2023-02-28T12:10:48;3.50;99.90
31735;DHT22;18313;48.518;9.124;2023-02-28T12:26:47;4.70;97.90
31735;DHT22;18313;48.518;9.124;2023-02-28T12:29:29;4.50;98.10
31735;DHT22;18313;48.518;9.124;2023-02-28T12:32:13;4.10;97.80
31735;DHT22;18313;48.518;9.124;2023-02-28T12:37:46;3.50;99.20
31735;DHT22;18313;48.518;9.124;2023-02-28T12:40:20;3.30;99.00
31735;DHT22;18313;48.518;9.124;2023-02-28T12:42:55;3.20;98.90
31735;DHT22;18313;48.518;9.124;2023-02-28T12:45:25;3.30;99.20
31735;DHT22;18313;48.518;9.124;2023-02-28T12:48:07;3.50;99.40
31735;DHT22;18313;48.518;9.124;2023-02-28T12:50:35;3.50;99.00
31735;DHT22;18313;48.518;9.124;2023-02-28T12:53:23;3.70;99.00
31735;DHT22;18313;48.518;9.124;2023-02-28T12:56:19;3.70;99.00
31735;DHT22;18313;48.518;9.124;2023-02-28T12:58:57;3.60;99.30
31735;DHT22;18313;48.518;9.124;2023-02-28T13:04:55;3.90;99.00
31735;DHT22;18313;48.518;9.124;2023-02-28T13:10:10;4.20;98.20
31735;DHT22;18313;48.518;9.124;2023-02-28T13:12:51;4.30;97.60
31735;DHT22;18313;48.518;9.124;2023-02-28T13:15:24;4.40;98.80
31735;DHT22;18313;48.518;9.124;2023-02-28T13:17:53;4.50;97.90
31735;DHT22;18313;48.518;9.124;2023-02-28T13:20:24;4.50;97.90
31735;DHT22;18313;48.518;9.124;2023-02-28T13:22:54;4.50;97.70
31735;DHT22;18313;48.518;9.124;2023-02-28T13:28:01;4.00;98.10
31735;DHT22;18313;48.518;9.124;2023-02-28T13:31:04;4.10;98.00
31735;DHT22;18313;48.518;9.124;2023-02-28T13:33:35;4.30;98.60
31735;DHT22;18313;48.518;9.124;2023-02-28T13:38:48;4.70;98.10
31735;DHT22;18313;48.518;9.124;2023-02-28T13:44:28;4.70;97.70
31735;DHT22;18313;48.518;9.124;2023-02-28T14:06:29;5.40;97.10
31735;DHT22;18313;48.518;9.124;2023-02-28T14:09:18;5.50;96.50
31735;DHT22;18313;48.518;9.124;2023-02-28T14:11:46;5.40;96.80
31735;DHT22;18313;48.518;9.124;2023-02-28T14:17:15;6.00;96.40
31735;DHT22;18313;48.518;9.124;2023-02-28T14:19:45;6.10;95.70
31735;DHT22;18313;48.518;9.124;2023-02-28T14:22:48;6.30;95.80
31735;DHT22;18313;48.518;9.124;2023-02-28T14:28:13;6.40;94.90
31735;DHT22;18313;48.518;9.124;2023-02-28T14:31:09;6.40;96.00
31735;DHT22;18313;48.518;9.124;2023-02-28T14:34:04;6.40;94.80
31735;DHT22;18313;48.518;9.124;2023-02-28T14:36:37;6.10;95.50
31735;DHT22;18313;48.518;9.124;2023-02-28T14:39:16;6.40;96.30
31735;DHT22;18313;48.518;9.124;2023-02-28T14:41:45;6.50;94.80
31735;DHT22;18313;48.518;9.124;2023-02-28T14:46:48;6.00;95.80
31735;DHT22;18313;48.518;9.124;2023-02-28T14:49:29;5.80;95.50
31735;DHT22;18313;48.518;9.124;2023-02-28T14:54:37;6.20;95.10
31735;DHT22;18313;48.518;9.124;2023-02-28T14:57:05;6.10;94.80
31735;DHT22;18313;48.518;9.124;2023-02-28T14:59:35;6.10;94.90
31735;DHT22;18313;48.518;9.124;2023-02-28T15:02:23;6.30;95.00
31735;DHT22;18313;48.518;9.124;2023-02-28T15:04:58;6.20;94.60
31735;DHT22;18313;48.518;9.124;2023-02-28T15:07:26;6.30;94.30
31735;DHT22;18313;48.518;9.124;2023-02-28T15:10:11;6.40;94.80
31735;DHT22;18313;48.518;9.124;2023-02-28T15:12:40;6.50;94.30
31735;DHT22;18313;48.518;9.124;2023-02-28T15:15:15;6.30;94.10
31735;DHT22;18313;48.518;9.124;2023-02-28T15:17:53;6.20;95.00
31735;DHT22;18313;48.518;9.124;2023-02-28T15:20:22;6.40;95.20
31735;DHT22;18313;48.518;9.124;2023-02-28T15:22:51;6.80;95.20
31735;DHT22;18313;48.518;9.124;2023-02-28T15:25:21;6.70;94.10
31735;DHT22;18313;48.518;9.124;2023-02-28T15:27:54;6.50;94.40
31735;DHT22;18313;48.518;9.124;2023-02-28T15:30:29;6.20;94.10
31735;DHT22;18313;48.518;9.124;2023-02-28T15:33:27;5.80;94.80
31735;DHT22;18313;48.518;9.124;2023-02-28T15:36:05;5.90;95.10
31735;DHT22;18313;48.518;9.124;2023-02-28T15:38:35;6.10;95.20
31735;DHT22;18313;48.518;9.124;2023-02-28T15:41:03;6.40;94.70
31735;DHT22;18313;48.518;9.124;2023-02-28T15:43:37;6.60;94.40
31735;DHT22;18313;48.518;9.124;2023-02-28T15:46:09;6.50;94.20
31735;DHT22;18313;48.518;9.124;2023-02-28T15:48:52;6.30;94.50
31735;DHT22;18313;48.518;9.124;2023-02-28T15:51:24;6.30;94.30
31735;DHT22;18313;48.518;9.124;2023-02-28T15:53:57;6.10;95.40
31735;DHT22;18313;48.518;9.124;2023-02-28T15:56:30;6.20;94.40
31735;DHT22;18313;48.518;9.124;2023-02-28T15:59:01;6.20;95.10
31735;DHT22;18313;48.518;9.124;2023-02-28T16:01:37;6.10;94.60
31735;DHT22;18313;48.518;9.124;2023-02-28T16:04:11;6.00;95.00
31735;DHT22;18313;48.518;9.124;2023-02-28T16:06:43;5.80;94.90
31735;DHT22;18313;48.518;9.124;2023-02-28T16:09:13;5.60;95.40
31735;DHT22;18313;48.518;9.124;2023-02-28T16:11:45;5.70;95.60
31735;DHT22;18313;48.518;9.124;2023-02-28T16:14:31;5.60;95.30
31735;DHT22;18313;48.518;9.124;2023-02-28T16:17:16;5.40;95.40
31735;DHT22;18313;48.518;9.124;2023-02-28T16:19:46;5.40;95.80
31735;DHT22;18313;48.518;9.124;2023-02-28T16:22:13;5.20;96.00
31735;DHT22;18313;48.518;9.124;2023-02-28T16:24:40;5.20;95.80
31735;DHT22;18313;48.518;9.124;2023-02-28T16:27:17;5.10;96.00
31735;DHT22;18313;48.518;9.124;2023-02-28T16:29:45;5.10;96.20
31735;DHT22;18313;48.518;9.124;2023-02-28T16:32:15;5.10;95.90
31735;DHT22;18313;48.518;9.124;2023-02-28T16:34:44;4.90;96.30
31735;DHT22;18313;48.518;9.124;2023-02-28T16:37:17;4.80;96.00
31735;DHT22;18313;48.518;9.124;2023-02-28T16:39:45;4.90;96.50
31735;DHT22;18313;48.518;9.124;2023-02-28T16:42:27;4.80;96.50
31735;DHT22;18313;48.518;9.124;2023-02-28T16:44:55;4.80;96.50
31735;DHT22;18313;48.518;9.124;2023-02-28T16:47:22;4.70;96.70
31735;DHT22;18313;48.518;9.124;2023-02-28T16:49:50;4.60;96.80
31735;DHT22;18313;48.518;9.124;2023-02-28T16:52:17;4.50;96.90
31735;DHT22;18313;48.518;9.124;2023-02-28T16:54:44;4.40;97.20
31735;DHT22;18313;48.518;9.124;2023-02-28T16:57:22;4.30;97.20
31735;DHT22;18313;48.518;9.124;2023-02-28T16:59:50;4.30;97.40
31735;DHT22;18313;48.518;9.124;2023-02-28T17:02:18;4.10;97.30
31735;DHT22;18313;48.518;9.124;2023-02-28T17:04:46;4.00;97.60
31735;DHT22;18313;48.518;9.124;2023-02-28T17:07:15;3.90;97.60
31735;DHT22;18313;48.518;9.124;2023-02-28T17:09:44;3.80;97.80
31735;DHT22;18313;48.518;9.124;2023-02-28T17:12:12;3.80;98.00
31735;DHT22;18313;48.518;9.124;2023-02-28T17:14:39;3.70;98.10
31735;DHT22;18313;48.518;9.124;2023-02-28T17:17:07;3.70;98.00
31735;DHT22;18313;48.518;9.124;2023-02-28T17:19:34;3.70;98.00
31735;DHT22;18313;48.518;9.124;2023-02-28T17:22:03;3.70;98.20
31735;DHT22;18313;48.518;9.124;2023-02-28T17:24:30;3.60;98.40
31735;DHT22;18313;48.518;9.124;2023-02-28T17:26:57;3.60;98.50
31735;DHT22;18313;48.518;9.124;2023-02-28T17:29:24;3.50;98.40
31735;DHT22;18313;48.518;9.124;2023-02-28T17:31:52;3.50;98.40
31735;DHT22;18313;48.518;9.124;2023-02-28T17:34:19;3.40;98.60
31735;DHT22;18313;48.518;9.124;2023-02-28T17:36:48;3.30;98.70
31735;DHT22;18313;48.518;9.124;2023-02-28T17:39:16;3.40;98.80
31735;DHT22;18313;48.518;9.124;2023-02-28T17:41:55;3.20;99.00
31735;DHT22;18313;48.518;9.124;2023-02-28T17:44:24;3.20;99.10
31735;DHT22;18313;48.518;9.124;2023-02-28T17:46:53;3.20;99.20
31735;DHT22;18313;48.518;9.124;2023-02-28T17:49:21;3.10;99.20
31735;DHT22;18313;48.518;9.124;2023-02-28T17:51:48;3.10;99.20
31735;DHT22;18313;48.518;9.124;2023-02-28T17:54:16;3.00;99.40
31735;DHT22;18313;48.518;9.124;2023-02-28T17:56:44;3.00;99.60
31735;DHT22;18313;48.518;9.124;2023-02-28T17:59:12;2.90;99.60
31735;DHT22;18313;48.518;9.124;2023-02-28T18:01:39;2.80;99.80
31735;DHT22;18313;48.518;9.124;2023-02-28T18:04:06;2.70;99.90
31735;DHT22;18313;48.518;9.124;2023-02-28T18:06:39;2.70;99.90
31735;DHT22;18313;48.518;9.124;2023-02-28T18:09:15;2.70;99.90
31735;DHT22;18313;48.518;9.124;2023-02-28T18:11:43;2.60;99.90
31735;DHT22;18313;48.518;9.124;2023-02-28T18:14:15;2.70;99.90
31735;DHT22;18313;48.518;9.124;2023-02-28T18:16:43;2.60;99.90